sensor_id;sensor_type;location;lat;lon;timestamp;P1;durP1;ratioP1;P2;durP2;ratioP2
28311;SDS011;15572;48.810;9.148;2023-11-21T00:00:48;8.77;;;1.87;;
28311;SDS011;15572;48.810;9.148;2023-11-21T00:05:44;5.20;;;1.70;;
28311;SDS011;15572;48.810;9.148;2023-11-21T00:10:40;4.77;;;1.70;;
28311;SDS011;15572;48.810;9.148;2023-11-21T00:15:37;6.63;;;1.70;;
28311;SDS011;15572;48.810;9.148;2023-11-21T00:20:35;3.73;;;1.70;;
28311;SDS011;15572;48.810;9.148;2023-11-21T00:25:31;4.33;;;1.60;;
28311;SDS011;15572;48.810;9.148;2023-11-21T00:30:28;10.20;;;1.50;;
28311;SDS011;15572;48.810;9.148;2023-11-21T00:35:26;6.67;;;1.67;;
28311;SDS011;15572;48.810;9.148;2023-11-21T00:40:23;4.17;;;1.60;;
28311;SDS011;15572;48.810;9.148;2023-11-21T00:45:20;3.83;;;1.47;;
28311;SDS011;15572;48.810;9.148;2023-11-21T00:50:16;8.37;;;2.33;;
28311;SDS011;15572;48.810;9.148;2023-11-21T00:55:13;7.23;;;2.00;;
28311;SDS011;15572;48.810;9.148;2023-11-21T01:00:11;6.20;;;2.17;;
28311;SDS011;15572;48.810;9.148;2023-11-21T01:05:12;6.23;;;1.73;;
28311;SDS011;15572;48.810;9.148;2023-11-21T01:10:08;3.47;;;1.73;;
28311;SDS011;15572;48.810;9.148;2023-11-21T01:15:07;4.27;;;1.70;;
28311;SDS011;15572;48.810;9.148;2023-11-21T01:20:05;5.27;;;1.50;;
28311;SDS011;15572;48.810;9.148;2023-11-21T01:25:06;5.17;;;1.57;;
28311;SDS011;15572;48.810;9.148;2023-11-21T01:30:03;3.40;;;1.40;;
28311;SDS011;15572;48.810;9.148;2023-11-21T01:35:03;2.73;;;1.27;;
28311;SDS011;15572;48.810;9.148;2023-11-21T01:40:01;6.57;;;1.30;;
28311;SDS011;15572;48.810;9.148;2023-11-21T01:45:00;4.37;;;1.20;;
28311;SDS011;15572;48.810;9.148;2023-11-21T01:49:59;2.93;;;1.13;;
28311;SDS011;15572;48.810;9.148;2023-11-21T01:54:58;4.57;;;1.30;;
28311;SDS011;15572;48.810;9.148;2023-11-21T01:59:56;3.87;;;1.20;;
28311;SDS011;15572;48.810;9.148;2023-11-21T02:04:55;2.87;;;1.13;;
28311;SDS011;15572;48.810;9.148;2023-11-21T02:09:51;5.83;;;1.30;;
28311;SDS011;15572;48.810;9.148;2023-11-21T02:14:49;2.70;;;1.30;;
28311;SDS011;15572;48.810;9.148;2023-11-21T02:19:46;5.57;;;1.20;;
28311;SDS011;15572;48.810;9.148;2023-11-21T02:24:47;3.70;;;1.33;;
28311;SDS011;15572;48.810;9.148;2023-11-21T02:29:43;3.17;;;1.30;;
28311;SDS011;15572;48.810;9.148;2023-11-21T02:34:40;4.43;;;1.40;;
28311;SDS011;15572;48.810;9.148;2023-11-21T02:39:38;5.03;;;1.50;;
28311;SDS011;15572;48.810;9.148;2023-11-21T02:44:36;4.83;;;1.30;;
28311;SDS011;15572;48.810;9.148;2023-11-21T02:49:32;2.33;;;1.10;;
28311;SDS011;15572;48.810;9.148;2023-11-21T02:54:31;4.43;;;1.20;;
28311;SDS011;15572;48.810;9.148;2023-11-21T02:59:31;2.90;;;1.10;;
28311;SDS011;15572;48.810;9.148;2023-11-21T03:04:29;2.33;;;1.30;;
28311;SDS011;15572;48.810;9.148;2023-11-21T03:09:27;2.23;;;0.93;;
28311;SDS011;15572;48.810;9.148;2023-11-21T03:14:23;2.07;;;1.20;;
28311;SDS011;15572;48.810;9.148;2023-11-21T03:19:20;2.77;;;1.00;;
28311;SDS011;15572;48.810;9.148;2023-11-21T03:24:18;3.50;;;2.33;;
28311;SDS011;15572;48.810;9.148;2023-11-21T03:29:14;4.93;;;1.40;;
28311;SDS011;15572;48.810;9.148;2023-11-21T03:34:15;2.60;;;1.17;;
28311;SDS011;15572;48.810;9.148;2023-11-21T03:39:12;2.13;;;1.10;;
28311;SDS011;15572;48.810;9.148;2023-11-21T03:44:09;1.40;;;0.90;;
28311;SDS011;15572;48.810;9.148;2023-11-21T03:49:06;5.30;;;1.03;;
28311;SDS011;15572;48.810;9.148;2023-11-21T03:54:03;2.13;;;0.83;;
28311;SDS011;15572;48.810;9.148;2023-11-21T03:58:59;2.93;;;0.97;;
28311;SDS011;15572;48.810;9.148;2023-11-21T04:03:57;2.33;;;1.07;;
28311;SDS011;15572;48.810;9.148;2023-11-21T04:08:54;1.60;;;0.80;;
28311;SDS011;15572;48.810;9.148;2023-11-21T04:13:50;2.80;;;0.90;;
28311;SDS011;15572;48.810;9.148;2023-11-21T04:18:47;2.93;;;0.80;;
28311;SDS011;15572;48.810;9.148;2023-11-21T04:23:44;3.80;;;0.83;;
28311;SDS011;15572;48.810;9.148;2023-11-21T04:28:41;2.73;;;1.00;;
28311;SDS011;15572;48.810;9.148;2023-11-21T04:33:38;1.73;;;0.80;;
28311;SDS011;15572;48.810;9.148;2023-11-21T04:38:34;1.33;;;0.77;;
28311;SDS011;15572;48.810;9.148;2023-11-21T04:43:32;2.10;;;0.90;;
28311;SDS011;15572;48.810;9.148;2023-11-21T04:48:28;1.40;;;0.80;;
28311;SDS011;15572;48.810;9.148;2023-11-21T04:53:25;0.70;;;0.70;;
28311;SDS011;15572;48.810;9.148;2023-11-21T04:58:21;1.93;;;0.90;;
28311;SDS011;15572;48.810;9.148;2023-11-21T05:03:19;2.13;;;1.00;;
28311;SDS011;15572;48.810;9.148;2023-11-21T05:08:15;2.97;;;0.80;;
28311;SDS011;15572;48.810;9.148;2023-11-21T05:13:12;3.10;;;1.07;;
28311;SDS011;15572;48.810;9.148;2023-11-21T05:18:09;1.83;;;1.00;;
28311;SDS011;15572;48.810;9.148;2023-11-21T05:23:06;2.90;;;0.90;;
28311;SDS011;15572;48.810;9.148;2023-11-21T05:28:03;2.30;;;0.90;;
28311;SDS011;15572;48.810;9.148;2023-11-21T05:33:01;1.97;;;1.07;;
28311;SDS011;15572;48.810;9.148;2023-11-21T05:37:58;1.50;;;0.90;;
28311;SDS011;15572;48.810;9.148;2023-11-21T05:42:56;1.63;;;1.00;;
28311;SDS011;15572;48.810;9.148;2023-11-21T05:47:52;3.07;;;2.30;;
28311;SDS011;15572;48.810;9.148;2023-11-21T05:52:48;4.03;;;2.90;;
28311;SDS011;15572;48.810;9.148;2023-11-21T05:57:45;5.20;;;3.30;;
28311;SDS011;15572;48.810;9.148;2023-11-21T06:02:43;4.97;;;3.53;;
28311;SDS011;15572;48.810;9.148;2023-11-21T06:07:40;1.93;;;1.20;;
28311;SDS011;15572;48.810;9.148;2023-11-21T06:12:36;2.97;;;1.50;;
28311;SDS011;15572;48.810;9.148;2023-11-21T06:17:33;2.17;;;1.20;;
28311;SDS011;15572;48.810;9.148;2023-11-21T06:22:32;1.63;;;1.10;;
28311;SDS011;15572;48.810;9.148;2023-11-21T06:27:28;2.30;;;1.37;;
28311;SDS011;15572;48.810;9.148;2023-11-21T06:32:25;2.00;;;1.03;;
28311;SDS011;15572;48.810;9.148;2023-11-21T06:37:24;2.33;;;1.20;;
28311;SDS011;15572;48.810;9.148;2023-11-21T06:42:22;4.90;;;1.40;;
28311;SDS011;15572;48.810;9.148;2023-11-21T06:47:19;6.87;;;3.60;;
28311;SDS011;15572;48.810;9.148;2023-11-21T06:52:16;3.60;;;1.83;;
28311;SDS011;15572;48.810;9.148;2023-11-21T06:57:13;4.87;;;1.90;;
28311;SDS011;15572;48.810;9.148;2023-11-21T07:02:10;2.73;;;1.60;;
28311;SDS011;15572;48.810;9.148;2023-11-21T07:07:07;4.47;;;1.90;;
28311;SDS011;15572;48.810;9.148;2023-11-21T07:12:04;3.77;;;2.03;;
28311;SDS011;15572;48.810;9.148;2023-11-21T07:17:02;3.73;;;1.97;;
28311;SDS011;15572;48.810;9.148;2023-11-21T07:22:00;3.70;;;1.77;;
28311;SDS011;15572;48.810;9.148;2023-11-21T07:26:56;4.20;;;1.77;;
28311;SDS011;15572;48.810;9.148;2023-11-21T07:31:53;1.77;;;1.60;;
28311;SDS011;15572;48.810;9.148;2023-11-21T07:36:50;3.43;;;1.90;;
28311;SDS011;15572;48.810;9.148;2023-11-21T07:41:48;3.83;;;2.00;;
28311;SDS011;15572;48.810;9.148;2023-11-21T07:46:45;2.40;;;2.10;;
28311;SDS011;15572;48.810;9.148;2023-11-21T07:51:41;3.70;;;1.80;;
28311;SDS011;15572;48.810;9.148;2023-11-21T07:56:38;6.83;;;2.13;;
28311;SDS011;15572;48.810;9.148;2023-11-21T08:01:36;1.83;;;1.60;;
28311;SDS011;15572;48.810;9.148;2023-11-21T08:06:32;3.13;;;1.90;;
28311;SDS011;15572;48.810;9.148;2023-11-21T08:11:29;2.97;;;2.00;;
28311;SDS011;15572;48.810;9.148;2023-11-21T08:16:27;2.50;;;2.00;;
28311;SDS011;15572;48.810;9.148;2023-11-21T08:21:25;4.50;;;1.40;;
28311;SDS011;15572;48.810;9.148;2023-11-21T08:26:22;1.90;;;1.10;;
28311;SDS011;15572;48.810;9.148;2023-11-21T08:31:23;2.40;;;1.30;;
28311;SDS011;15572;48.810;9.148;2023-11-21T08:36:20;2.67;;;1.30;;
28311;SDS011;15572;48.810;9.148;2023-11-21T08:41:19;2.87;;;1.30;;
28311;SDS011;15572;48.810;9.148;2023-11-21T08:46:16;1.93;;;1.33;;
28311;SDS011;15572;48.810;9.148;2023-11-21T08:51:13;4.77;;;1.07;;
28311;SDS011;15572;48.810;9.148;2023-11-21T08:56:12;1.83;;;1.40;;
28311;SDS011;15572;48.810;9.148;2023-11-21T09:01:10;3.90;;;1.43;;
28311;SDS011;15572;48.810;9.148;2023-11-21T09:06:07;1.90;;;1.23;;
28311;SDS011;15572;48.810;9.148;2023-11-21T09:11:04;2.23;;;1.20;;
28311;SDS011;15572;48.810;9.148;2023-11-21T09:16:03;2.40;;;1.57;;
28311;SDS011;15572;48.810;9.148;2023-11-21T09:21:02;2.77;;;1.83;;
28311;SDS011;15572;48.810;9.148;2023-11-21T09:25:59;3.10;;;1.30;;
28311;SDS011;15572;48.810;9.148;2023-11-21T09:30:56;4.23;;;1.90;;
28311;SDS011;15572;48.810;9.148;2023-11-21T09:35:52;3.67;;;2.17;;
28311;SDS011;15572;48.810;9.148;2023-11-21T09:40:50;2.57;;;2.20;;
28311;SDS011;15572;48.810;9.148;2023-11-21T09:45:51;3.70;;;1.80;;
28311;SDS011;15572;48.810;9.148;2023-11-21T09:50:53;2.27;;;1.70;;
28311;SDS011;15572;48.810;9.148;2023-11-21T09:55:51;2.37;;;1.37;;
28311;SDS011;15572;48.810;9.148;2023-11-21T10:00:50;2.67;;;1.40;;
28311;SDS011;15572;48.810;9.148;2023-11-21T10:05:50;2.43;;;1.30;;
28311;SDS011;15572;48.810;9.148;2023-11-21T10:10:49;1.10;;;1.00;;
28311;SDS011;15572;48.810;9.148;2023-11-21T10:15:50;1.30;;;1.07;;
28311;SDS011;15572;48.810;9.148;2023-11-21T10:20:47;1.13;;;1.10;;
28311;SDS011;15572;48.810;9.148;2023-11-21T10:25:47;2.30;;;1.03;;
28311;SDS011;15572;48.810;9.148;2023-11-21T10:30:46;1.10;;;1.00;;
28311;SDS011;15572;48.810;9.148;2023-11-21T10:35:43;2.03;;;1.03;;
28311;SDS011;15572;48.810;9.148;2023-11-21T10:40:44;0.83;;;0.60;;
28311;SDS011;15572;48.810;9.148;2023-11-21T10:45:42;1.40;;;0.90;;
28311;SDS011;15572;48.810;9.148;2023-11-21T10:50:40;2.40;;;1.20;;
28311;SDS011;15572;48.810;9.148;2023-11-21T10:55:37;1.20;;;1.10;;
28311;SDS011;15572;48.810;9.148;2023-11-21T11:00:33;2.70;;;1.30;;
28311;SDS011;15572;48.810;9.148;2023-11-21T11:05:30;1.80;;;1.00;;
28311;SDS011;15572;48.810;9.148;2023-11-21T11:10:28;1.13;;;1.00;;
28311;SDS011;15572;48.810;9.148;2023-11-21T11:15:25;1.43;;;1.27;;
28311;SDS011;15572;48.810;9.148;2023-11-21T11:20:23;3.57;;;1.30;;
28311;SDS011;15572;48.810;9.148;2023-11-21T11:25:25;1.37;;;1.20;;
28311;SDS011;15572;48.810;9.148;2023-11-21T11:30:35;2.00;;;1.77;;
28311;SDS011;15572;48.810;9.148;2023-11-21T11:35:44;2.33;;;1.70;;
28311;SDS011;15572;48.810;9.148;2023-11-21T11:40:52;2.87;;;1.80;;
28311;SDS011;15572;48.810;9.148;2023-11-21T11:45:49;2.10;;;1.90;;
28311;SDS011;15572;48.810;9.148;2023-11-21T11:56:26;2.90;;;2.30;;
28311;SDS011;15572;48.810;9.148;2023-11-21T12:01:26;1.63;;;1.53;;
28311;SDS011;15572;48.810;9.148;2023-11-21T12:06:30;1.50;;;1.40;;
28311;SDS011;15572;48.810;9.148;2023-11-21T12:11:31;1.70;;;1.60;;
28311;SDS011;15572;48.810;9.148;2023-11-21T12:16:32;2.73;;;1.80;;
28311;SDS011;15572;48.810;9.148;2023-11-21T12:21:29;2.37;;;2.10;;
28311;SDS011;15572;48.810;9.148;2023-11-21T12:26:27;4.60;;;2.90;;
28311;SDS011;15572;48.810;9.148;2023-11-21T12:31:25;5.43;;;2.33;;
28311;SDS011;15572;48.810;9.148;2023-11-21T12:36:21;6.60;;;2.87;;
28311;SDS011;15572;48.810;9.148;2023-11-21T12:41:18;3.87;;;2.10;;
28311;SDS011;15572;48.810;9.148;2023-11-21T12:46:14;2.33;;;2.13;;
28311;SDS011;15572;48.810;9.148;2023-11-21T12:51:13;2.67;;;2.13;;
28311;SDS011;15572;48.810;9.148;2023-11-21T12:56:10;3.83;;;2.50;;
28311;SDS011;15572;48.810;9.148;2023-11-21T13:01:08;2.20;;;1.93;;
28311;SDS011;15572;48.810;9.148;2023-11-21T13:06:06;3.50;;;2.10;;
28311;SDS011;15572;48.810;9.148;2023-11-21T13:11:05;1.77;;;1.27;;
28311;SDS011;15572;48.810;9.148;2023-11-21T13:16:02;0.80;;;0.80;;
28311;SDS011;15572;48.810;9.148;2023-11-21T13:21:01;1.70;;;0.90;;
28311;SDS011;15572;48.810;9.148;2023-11-21T13:26:00;1.43;;;0.90;;
28311;SDS011;15572;48.810;9.148;2023-11-21T13:31:00;1.23;;;1.13;;
28311;SDS011;15572;48.810;9.148;2023-11-21T13:36:04;1.43;;;1.20;;
28311;SDS011;15572;48.810;9.148;2023-11-21T13:41:03;1.33;;;1.20;;
28311;SDS011;15572;48.810;9.148;2023-11-21T13:46:04;3.57;;;1.70;;
28311;SDS011;15572;48.810;9.148;2023-11-21T13:51:08;2.43;;;1.40;;
28311;SDS011;15572;48.810;9.148;2023-11-21T13:56:12;3.07;;;1.80;;
28311;SDS011;15572;48.810;9.148;2023-11-21T14:01:14;4.13;;;2.07;;
28311;SDS011;15572;48.810;9.148;2023-11-21T14:06:30;3.47;;;2.50;;
28311;SDS011;15572;48.810;9.148;2023-11-21T14:11:29;2.33;;;2.13;;
28311;SDS011;15572;48.810;9.148;2023-11-21T14:16:27;3.90;;;2.17;;
28311;SDS011;15572;48.810;9.148;2023-11-21T14:21:23;3.07;;;2.43;;
28311;SDS011;15572;48.810;9.148;2023-11-21T14:26:21;3.13;;;2.20;;
28311;SDS011;15572;48.810;9.148;2023-11-21T14:31:18;2.43;;;2.23;;
28311;SDS011;15572;48.810;9.148;2023-11-21T14:36:16;4.13;;;2.43;;
28311;SDS011;15572;48.810;9.148;2023-11-21T14:41:13;2.40;;;2.03;;
28311;SDS011;15572;48.810;9.148;2023-11-21T14:46:09;4.80;;;2.10;;
28311;SDS011;15572;48.810;9.148;2023-11-21T14:51:11;2.40;;;2.20;;
28311;SDS011;15572;48.810;9.148;2023-11-21T14:56:27;2.33;;;2.07;;
28311;SDS011;15572;48.810;9.148;2023-11-21T15:01:25;2.90;;;2.60;;
28311;SDS011;15572;48.810;9.148;2023-11-21T15:06:39;4.07;;;2.77;;
28311;SDS011;15572;48.810;9.148;2023-11-21T15:11:39;3.50;;;2.83;;
28311;SDS011;15572;48.810;9.148;2023-11-21T15:16:36;4.33;;;3.27;;
28311;SDS011;15572;48.810;9.148;2023-11-21T15:21:35;4.07;;;3.20;;
28311;SDS011;15572;48.810;9.148;2023-11-21T15:26:32;4.17;;;2.83;;
28311;SDS011;15572;48.810;9.148;2023-11-21T15:31:30;3.87;;;3.37;;
28311;SDS011;15572;48.810;9.148;2023-11-21T15:36:26;3.87;;;3.47;;
28311;SDS011;15572;48.810;9.148;2023-11-21T15:41:23;4.33;;;3.93;;
28311;SDS011;15572;48.810;9.148;2023-11-21T15:46:19;5.97;;;4.17;;
28311;SDS011;15572;48.810;9.148;2023-11-21T15:51:17;4.50;;;3.60;;
28311;SDS011;15572;48.810;9.148;2023-11-21T15:56:13;5.33;;;3.60;;
28311;SDS011;15572;48.810;9.148;2023-11-21T16:01:10;5.57;;;4.20;;
28311;SDS011;15572;48.810;9.148;2023-11-21T16:06:07;6.10;;;4.07;;
28311;SDS011;15572;48.810;9.148;2023-11-21T16:11:08;5.20;;;3.90;;
28311;SDS011;15572;48.810;9.148;2023-11-21T16:16:04;5.60;;;4.40;;
28311;SDS011;15572;48.810;9.148;2023-11-21T16:21:01;5.87;;;4.77;;
28311;SDS011;15572;48.810;9.148;2023-11-21T16:25:57;7.13;;;5.07;;
28311;SDS011;15572;48.810;9.148;2023-11-21T16:30:55;8.50;;;5.10;;
28311;SDS011;15572;48.810;9.148;2023-11-21T16:35:52;8.10;;;6.03;;
28311;SDS011;15572;48.810;9.148;2023-11-21T16:40:48;7.97;;;5.43;;
28311;SDS011;15572;48.810;9.148;2023-11-21T16:45:45;9.87;;;5.77;;
28311;SDS011;15572;48.810;9.148;2023-11-21T16:50:48;9.00;;;6.37;;
28311;SDS011;15572;48.810;9.148;2023-11-21T16:55:44;10.47;;;7.40;;
28311;SDS011;15572;48.810;9.148;2023-11-21T17:00:41;9.67;;;7.27;;
28311;SDS011;15572;48.810;9.148;2023-11-21T17:05:37;10.93;;;8.07;;
28311;SDS011;15572;48.810;9.148;2023-11-21T17:10:35;10.47;;;8.00;;
28311;SDS011;15572;48.810;9.148;2023-11-21T17:15:32;16.13;;;10.23;;
28311;SDS011;15572;48.810;9.148;2023-11-21T17:20:28;13.40;;;8.53;;
28311;SDS011;15572;48.810;9.148;2023-11-21T17:25:24;13.30;;;9.23;;
28311;SDS011;15572;48.810;9.148;2023-11-21T17:30:22;14.87;;;9.63;;
28311;SDS011;15572;48.810;9.148;2023-11-21T17:35:19;14.47;;;10.97;;
28311;SDS011;15572;48.810;9.148;2023-11-21T17:40:16;14.37;;;10.47;;
28311;SDS011;15572;48.810;9.148;2023-11-21T17:45:12;18.33;;;10.03;;
28311;SDS011;15572;48.810;9.148;2023-11-21T17:50:11;15.03;;;10.07;;
28311;SDS011;15572;48.810;9.148;2023-11-21T17:55:08;13.00;;;9.20;;
28311;SDS011;15572;48.810;9.148;2023-11-21T18:00:05;14.97;;;9.50;;
28311;SDS011;15572;48.810;9.148;2023-11-21T18:05:04;11.77;;;8.47;;
28311;SDS011;15572;48.810;9.148;2023-11-21T18:10:08;14.90;;;9.80;;
28311;SDS011;15572;48.810;9.148;2023-11-21T18:15:05;14.13;;;9.50;;
28311;SDS011;15572;48.810;9.148;2023-11-21T18:20:02;14.60;;;10.07;;
28311;SDS011;15572;48.810;9.148;2023-11-21T18:25:00;12.90;;;9.23;;
28311;SDS011;15572;48.810;9.148;2023-11-21T18:29:59;14.20;;;8.97;;
28311;SDS011;15572;48.810;9.148;2023-11-21T18:34:55;12.87;;;9.67;;
28311;SDS011;15572;48.810;9.148;2023-11-21T18:39:52;15.47;;;9.70;;
28311;SDS011;15572;48.810;9.148;2023-11-21T18:44:48;15.53;;;10.00;;
28311;SDS011;15572;48.810;9.148;2023-11-21T18:49:46;12.77;;;8.57;;
28311;SDS011;15572;48.810;9.148;2023-11-21T18:54:43;11.73;;;8.93;;
28311;SDS011;15572;48.810;9.148;2023-11-21T18:59:40;12.87;;;9.00;;
28311;SDS011;15572;48.810;9.148;2023-11-21T19:04:37;13.30;;;9.43;;
28311;SDS011;15572;48.810;9.148;2023-11-21T19:09:35;12.53;;;9.10;;
28311;SDS011;15572;48.810;9.148;2023-11-21T19:14:32;13.03;;;8.30;;
28311;SDS011;15572;48.810;9.148;2023-11-21T19:19:29;14.40;;;8.13;;
28311;SDS011;15572;48.810;9.148;2023-11-21T19:24:25;14.30;;;8.43;;
28311;SDS011;15572;48.810;9.148;2023-11-21T19:29:24;13.40;;;8.30;;
28311;SDS011;15572;48.810;9.148;2023-11-21T19:34:21;14.00;;;9.63;;
28311;SDS011;15572;48.810;9.148;2023-11-21T19:39:17;15.60;;;9.00;;
28311;SDS011;15572;48.810;9.148;2023-11-21T19:44:14;15.47;;;9.63;;
28311;SDS011;15572;48.810;9.148;2023-11-21T19:49:12;40.40;;;21.43;;
28311;SDS011;15572;48.810;9.148;2023-11-21T19:54:09;17.90;;;10.93;;
28311;SDS011;15572;48.810;9.148;2023-11-21T19:59:05;15.70;;;10.87;;
28311;SDS011;15572;48.810;9.148;2023-11-21T20:04:01;18.17;;;9.67;;
28311;SDS011;15572;48.810;9.148;2023-11-21T20:08:59;14.40;;;9.43;;
28311;SDS011;15572;48.810;9.148;2023-11-21T20:13:58;16.67;;;9.33;;
28311;SDS011;15572;48.810;9.148;2023-11-21T20:18:55;17.90;;;9.83;;
28311;SDS011;15572;48.810;9.148;2023-11-21T20:23:51;24.10;;;9.50;;
28311;SDS011;15572;48.810;9.148;2023-11-21T20:28:49;18.60;;;8.80;;
28311;SDS011;15572;48.810;9.148;2023-11-21T20:33:48;15.67;;;8.43;;
28311;SDS011;15572;48.810;9.148;2023-11-21T20:38:44;18.53;;;10.00;;
28311;SDS011;15572;48.810;9.148;2023-11-21T20:43:41;14.47;;;9.03;;
28311;SDS011;15572;48.810;9.148;2023-11-21T20:48:39;15.80;;;8.00;;
28311;SDS011;15572;48.810;9.148;2023-11-21T20:53:35;16.57;;;8.07;;
28311;SDS011;15572;48.810;9.148;2023-11-21T20:58:32;16.37;;;8.07;;
28311;SDS011;15572;48.810;9.148;2023-11-21T21:03:28;18.37;;;8.73;;
28311;SDS011;15572;48.810;9.148;2023-11-21T21:08:26;19.27;;;9.87;;
28311;SDS011;15572;48.810;9.148;2023-11-21T21:13:23;19.00;;;10.17;;
28311;SDS011;15572;48.810;9.148;2023-11-21T21:18:19;21.87;;;10.03;;
28311;SDS011;15572;48.810;9.148;2023-11-21T21:23:16;21.40;;;10.77;;
28311;SDS011;15572;48.810;9.148;2023-11-21T21:28:14;21.03;;;10.70;;
28311;SDS011;15572;48.810;9.148;2023-11-21T21:33:10;18.37;;;10.20;;
28311;SDS011;15572;48.810;9.148;2023-11-21T21:38:07;20.50;;;10.13;;
28311;SDS011;15572;48.810;9.148;2023-11-21T21:43:03;18.30;;;10.00;;
28311;SDS011;15572;48.810;9.148;2023-11-21T21:48:02;20.53;;;10.43;;
28311;SDS011;15572;48.810;9.148;2023-11-21T21:52:59;21.83;;;10.60;;
28311;SDS011;15572;48.810;9.148;2023-11-21T21:57:56;15.73;;;10.30;;
28311;SDS011;15572;48.810;9.148;2023-11-21T22:02:53;21.13;;;10.63;;
28311;SDS011;15572;48.810;9.148;2023-11-21T22:07:51;18.33;;;11.37;;
28311;SDS011;15572;48.810;9.148;2023-11-21T22:12:48;19.70;;;10.27;;
28311;SDS011;15572;48.810;9.148;2023-11-21T22:17:45;21.80;;;11.17;;
28311;SDS011;15572;48.810;9.148;2023-11-21T22:22:41;17.13;;;10.13;;
28311;SDS011;15572;48.810;9.148;2023-11-21T22:27:39;18.97;;;10.17;;
28311;SDS011;15572;48.810;9.148;2023-11-21T22:32:36;19.17;;;11.13;;
28311;SDS011;15572;48.810;9.148;2023-11-21T22:37:32;20.13;;;10.53;;
28311;SDS011;15572;48.810;9.148;2023-11-21T22:42:28;21.47;;;11.13;;
28311;SDS011;15572;48.810;9.148;2023-11-21T22:47:26;21.10;;;11.03;;
28311;SDS011;15572;48.810;9.148;2023-11-21T22:52:22;20.37;;;11.67;;
28311;SDS011;15572;48.810;9.148;2023-11-21T22:57:19;19.80;;;11.43;;
28311;SDS011;15572;48.810;9.148;2023-11-21T23:02:15;19.80;;;10.67;;
28311;SDS011;15572;48.810;9.148;2023-11-21T23:07:13;22.10;;;11.13;;
28311;SDS011;15572;48.810;9.148;2023-11-21T23:12:10;20.07;;;10.53;;
28311;SDS011;15572;48.810;9.148;2023-11-21T23:17:06;18.73;;;10.27;;
28311;SDS011;15572;48.810;9.148;2023-11-21T23:22:03;20.17;;;10.97;;
28311;SDS011;15572;48.810;9.148;2023-11-21T23:27:01;18.03;;;10.97;;
28311;SDS011;15572;48.810;9.148;2023-11-21T23:31:58;20.73;;;12.37;;
28311;SDS011;15572;48.810;9.148;2023-11-21T23:36:55;20.93;;;11.27;;
28311;SDS011;15572;48.810;9.148;2023-11-21T23:41:51;19.93;;;11.50;;
28311;SDS011;15572;48.810;9.148;2023-11-21T23:46:49;22.20;;;12.00;;
28311;SDS011;15572;48.810;9.148;2023-11-21T23:51:45;22.10;;;11.40;;
28311;SDS011;15572;48.810;9.148;2023-11-21T23:56:42;22.03;;;12.43;;
